FRB weather

Forbes Airport
Forbes, New South Wales, Australia

Public forecast

Using degrees Celsius for public forecast. Weather courtesy of forecast.io.

METAR (pilot weather report)

Closest report is Dubbo City Regional Airport, 76.1 nm (140.9 km) NNE. Retrieved 2019/04/23 03:30 UTC (21 minutes ago):

YSDU 230330Z AUTO 09006KT 050V130 9999 // NCD 29/11 Q1022 RF00.0/000.0

TAF (pilot weather forecast)

Forecast is more than 12 hours old.

Closest forecast is Dubbo City Regional Airport, 76.1 nm (140.9 km) NNE. Retrieved 2019/04/22 00:37 UTC (1 day ago):

TAF YSDU 222242Z 2300/2318 08012KT 9999 SCT045